Time;durP1;ratioP1;P1;durP2;ratioP2;P2;SDS_P1;SDS_P2;PMS_P1;PMS_P2;Temp;Humidity;BMP_temperature;BMP_pressure;BME280_temperature;BME280_humidity;BME280_pressure;Samples;Min_cycle;Max_cycle;Signal;HPM_P1;HPM_P2
2021/06/05 00:00:15;;;;;;;13.57;10.48;;;21.20;69.10;;;;;;6232474;23;20026;-71
2021/06/05 00:02:41;;;;;;;14.07;10.05;;;21.20;69.10;;;;;;6258109;23;20421;-71
2021/06/05 00:05:08;;;;;;;12.13;10.13;;;21.20;69.10;;;;;;6258007;23;20016;-71
2021/06/05 00:07:34;;;;;;;12.02;9.30;;;21.20;69.10;;;;;;6259062;23;20022;-71
2021/06/05 00:09:59;;;;;;;12.50;9.00;;;21.20;69.10;;;;;;6258241;23;20346;-71
2021/06/05 00:12:28;;;;;;;12.85;9.32;;;21.20;69.10;;;;;;6258201;23;20020;-71
2021/06/05 00:14:54;;;;;;;12.85;9.65;;;21.10;69.00;;;;;;6253035;23;20012;-71
2021/06/05 00:17:20;;;;;;;11.38;8.73;;;21.20;69.10;;;;;;6258089;23;20020;-71
2021/06/05 00:19:46;;;;;;;10.77;8.77;;;21.20;69.00;;;;;;6258194;23;20016;-71
2021/06/05 00:22:13;;;;;;;11.30;8.80;;;21.10;69.00;;;;;;6258250;23;20027;-71
2021/06/05 00:24:41;;;;;;;11.02;8.68;;;21.20;69.00;;;;;;6258888;23;20062;-71
2021/06/05 00:27:07;;;;;;;10.50;8.63;;;21.10;69.00;;;;;;6248845;23;20020;-71
2021/06/05 00:29:33;;;;;;;10.48;8.13;;;21.10;69.00;;;;;;6258824;23;20012;-71
2021/06/05 00:31:59;;;;;;;10.00;8.60;;;21.10;69.00;;;;;;6248285;23;20032;-71
2021/06/05 00:34:25;;;;;;;9.32;7.82;;;21.10;69.00;;;;;;6248144;23;20013;-71
2021/06/05 00:36:51;;;;;;;9.00;7.70;;;21.10;69.00;;;;;;6247899;23;20440;-71
2021/06/05 00:39:16;;;;;;;9.35;7.43;;;21.10;69.00;;;;;;6257938;23;20480;-71
2021/06/05 00:41:43;;;;;;;8.27;7.20;;;21.10;68.90;;;;;;6258456;23;20012;-71
2021/06/05 00:44:11;;;;;;;9.38;7.70;;;21.10;68.90;;;;;;6249127;23;20020;-71
2021/06/05 00:46:37;;;;;;;7.78;6.97;;;21.10;68.90;;;;;;6260672;23;20016;-71
2021/06/05 00:49:05;;;;;;;8.93;7.05;;;21.10;69.00;;;;;;6259954;23;20012;-71
2021/06/05 00:51:35;;;;;;;7.13;6.32;;;21.10;68.90;;;;;;6249842;23;20020;-71
2021/06/05 00:54:02;;;;;;;7.55;6.72;;;21.10;68.90;;;;;;6260639;23;20024;-71
2021/06/05 00:56:28;;;;;;;7.88;7.07;;;21.10;68.90;;;;;;6249797;23;20091;-71
2021/06/05 00:58:54;;;;;;;7.68;6.35;;;21.10;68.90;;;;;;6259765;23;20012;-71
2021/06/05 01:01:24;;;;;;;7.90;7.10;;;21.10;68.90;;;;;;6259800;23;20012;-71
2021/06/05 01:03:52;;;;;;;6.63;5.93;;;21.10;68.90;;;;;;6260338;23;20016;-72
2021/06/05 01:06:26;;;;;;;7.57;5.95;;;21.10;68.90;;;;;;6259384;23;20012;-71
2021/06/05 01:09:05;;;;;;;6.32;5.68;;;21.10;68.90;;;;;;6249764;23;20039;-71
2021/06/05 01:11:38;;;;;;;7.35;5.82;;;21.10;68.80;;;;;;6250313;23;20020;-71
2021/06/05 01:14:29;;;;;;;6.47;5.43;;;21.00;68.80;;;;;;6249567;23;20098;-71
2021/06/05 01:17:04;;;;;;;6.90;5.70;;;21.00;68.80;;;;;;6249368;23;20016;-71
2021/06/05 01:20:03;;;;;;;5.80;5.03;;;21.00;68.80;;;;;;6259536;23;20316;-71
2021/06/05 01:22:38;;;;;;;6.00;5.40;;;21.00;68.80;;;;;;6259280;23;20331;-71
2021/06/05 01:25:40;;;;;;;6.18;5.43;;;21.00;68.80;;;;;;6259588;23;20031;-71
2021/06/05 01:28:17;;;;;;;6.13;5.30;;;21.00;68.80;;;;;;6249237;23;20024;-71
2021/06/05 01:30:47;;;;;;;5.47;4.93;;;21.00;68.80;;;;;;6259512;23;20087;-71
2021/06/05 01:33:16;;;;;;;6.20;5.60;;;21.00;68.80;;;;;;6249690;23;20024;-71
2021/06/05 01:35:42;;;;;;;5.78;5.18;;;21.00;69.40;;;;;;6259547;23;20091;-71
2021/06/05 01:38:10;;;;;;;5.57;4.93;;;21.00;68.80;;;;;;6260289;23;20016;-71
2021/06/05 01:40:37;;;;;;;5.82;4.97;;;21.00;68.70;;;;;;6259518;23;20055;-71
2021/06/05 01:43:05;;;;;;;5.45;4.95;;;21.00;68.80;;;;;;6249853;23;20027;-71
2021/06/05 01:45:37;;;;;;;5.72;5.15;;;21.00;68.80;;;;;;6249318;23;20379;-71
2021/06/05 01:48:05;;;;;;;;;;;21.00;68.70;;;;;;6250855;23;20020;-71
2021/06/05 01:50:33;;;;;;;4.38;3.97;;;20.90;68.70;;;;;;6260020;23;19949;-71
2021/06/05 01:53:05;;;;;;;5.80;5.03;;;20.90;68.80;;;;;;6259269;23;20038;-71
2021/06/05 01:55:36;;;;;;;5.95;5.35;;;21.00;68.90;;;;;;6259593;23;20019;-71
2021/06/05 01:58:12;;;;;;;5.47;4.88;;;20.90;68.80;;;;;;6260003;23;20428;-71
2021/06/05 02:00:41;;;;;;;5.13;4.63;;;20.90;68.80;;;;;;6259163;23;20012;-71
2021/06/05 02:03:07;;;;;;;5.18;4.65;;;20.90;68.90;;;;;;6259766;23;20016;-71
2021/06/05 02:05:34;;;;;;;5.95;5.35;;;20.90;68.80;;;;;;6248818;23;20102;-71
2021/06/05 02:08:52;;;;;;;5.65;4.78;;;20.90;68.80;;;;;;6258810;23;20304;-71
2021/06/05 02:11:24;;;;;;;5.55;4.70;;;20.90;68.90;;;;;;6258770;23;20282;-71
2021/06/05 02:13:56;;;;;;;5.32;4.82;;;20.90;68.90;;;;;;6249760;23;20016;-71
2021/06/05 02:16:29;;;;;;;5.57;5.00;;;20.90;69.00;;;;;;6249862;23;20103;-71
2021/06/05 02:19:00;;;;;;;5.38;4.75;;;20.90;69.00;;;;;;6258667;23;20429;-71
2021/06/05 02:21:28;;;;;;;5.30;4.70;;;20.90;69.00;;;;;;6259657;23;20183;-71
2021/06/05 02:24:08;;;;;;;4.50;4.10;;;20.90;69.10;;;;;;6248746;23;20027;-71
2021/06/05 02:26:38;;;;;;;5.07;4.57;;;20.90;69.10;;;;;;6258663;23;20016;-71
2021/06/05 02:29:07;;;;;;;4.68;4.18;;;20.90;69.00;;;;;;6259105;23;20011;-71
2021/06/05 02:31:33;;;;;;;4.97;4.10;;;20.90;69.00;;;;;;6259597;23;20016;-71
2021/06/05 02:34:01;;;;;;;5.32;4.65;;;20.90;69.00;;;;;;6258854;23;20012;-71
2021/06/05 02:36:27;;;;;;;4.82;4.00;;;20.90;69.00;;;;;;6232482;23;20012;-71
2021/06/05 02:38:53;;;;;;;4.55;4.15;;;20.90;68.90;;;;;;6259082;23;20020;-71
2021/06/05 02:41:23;;;;;;;4.75;4.28;;;20.90;68.80;;;;;;6259052;23;20058;-71
2021/06/05 02:43:51;;;;;;;4.80;4.30;;;20.90;68.70;;;;;;6248660;23;20027;-71
2021/06/05 02:46:29;;;;;;;5.20;4.70;;;20.90;68.70;;;;;;6258408;23;20012;-71
2021/06/05 02:49:00;;;;;;;4.80;4.35;;;20.90;68.70;;;;;;6258381;23;20019;-71
2021/06/05 02:51:32;;;;;;;5.93;4.97;;;20.90;68.70;;;;;;6249200;23;20031;-71
2021/06/05 02:53:58;;;;;;;5.40;4.88;;;20.90;68.80;;;;;;6258691;23;20016;-71
2021/06/05 02:56:24;;;;;;;5.78;5.18;;;20.90;68.80;;;;;;6249227;23;20012;-71
2021/06/05 02:58:50;;;;;;;5.35;4.85;;;20.90;68.80;;;;;;6258548;23;20016;-71
2021/06/05 03:01:16;;;;;;;6.60;5.40;;;20.90;68.80;;;;;;6249181;23;20016;-71
2021/06/05 03:03:43;;;;;;;5.97;5.25;;;20.90;68.90;;;;;;6258634;23;20070;-71
2021/06/05 03:06:10;;;;;;;5.60;5.00;;;20.90;68.90;;;;;;6248447;23;20035;-71
2021/06/05 03:08:40;;;;;;;5.60;4.82;;;20.90;68.90;;;;;;6248452;23;20020;-71
2021/06/05 03:11:11;;;;;;;6.00;5.40;;;20.90;68.80;;;;;;6249391;23;20073;-72
2021/06/05 03:13:37;;;;;;;5.63;4.97;;;20.80;68.80;;;;;;6258750;23;20081;-71
2021/06/05 03:16:04;;;;;;;4.95;4.45;;;20.80;68.90;;;;;;6249070;23;20047;-71
2021/06/05 03:18:30;;;;;;;5.45;4.90;;;20.80;68.90;;;;;;6258612;23;20026;-71
2021/06/05 03:20:57;;;;;;;5.40;4.50;;;20.80;68.90;;;;;;6258336;23;20350;-71
2021/06/05 03:23:26;;;;;;;5.60;5.10;;;20.80;68.90;;;;;;6258500;23;20022;-71
2021/06/05 03:25:52;;;;;;;5.28;4.70;;;20.80;68.90;;;;;;6258883;23;20036;-71
2021/06/05 03:28:21;;;;;;;5.43;4.93;;;20.80;69.00;;;;;;6258372;23;20016;-71
2021/06/05 03:30:47;;;;;;;5.45;4.95;;;20.80;69.00;;;;;;6258452;23;20023;-71
2021/06/05 03:33:13;;;;;;;5.10;4.60;;;20.80;69.00;;;;;;6258410;23;20084;-71
2021/06/05 03:35:39;;;;;;;5.22;4.72;;;20.80;69.00;;;;;;6258136;23;20310;-71
2021/06/05 03:38:06;;;;;;;4.95;4.43;;;20.80;69.00;;;;;;6258533;23;20090;-71
2021/06/05 03:40:34;;;;;;;5.22;4.72;;;20.80;69.00;;;;;;6258184;23;20012;-71
2021/06/05 03:43:01;;;;;;;5.07;4.57;;;20.80;69.00;;;;;;6258702;23;20044;-71
2021/06/05 03:45:28;;;;;;;4.30;3.90;;;20.80;69.10;;;;;;6249137;23;20043;-71
2021/06/05 03:47:55;;;;;;;5.70;4.50;;;20.80;68.90;;;;;;6258337;23;20027;-71
2021/06/05 03:50:25;;;;;;;4.88;4.10;;;20.80;68.80;;;;;;6258148;23;20036;-71
2021/06/05 03:52:51;;;;;;;4.93;4.32;;;20.80;68.80;;;;;;6258283;23;20016;-71
2021/06/05 03:55:17;;;;;;;4.78;4.18;;;20.80;68.70;;;;;;6257954;23;20359;-71
2021/06/05 03:57:44;;;;;;;4.57;4.10;;;20.80;68.70;;;;;;6258773;23;20020;-71
2021/06/05 04:00:14;;;;;;;4.22;3.83;;;20.80;68.70;;;;;;6248118;23;20098;-71
2021/06/05 04:02:40;;;;;;;4.85;4.15;;;20.80;69.30;;;;;;6258249;23;20012;-71
2021/06/05 04:05:08;;;;;;;4.35;3.95;;;20.80;68.70;;;;;;6247911;23;20031;-71
2021/06/05 04:07:34;;;;;;;5.38;4.65;;;20.80;69.30;;;;;;6248285;23;20027;-71
2021/06/05 04:10:01;;;;;;;5.97;4.93;;;20.70;68.60;;;;;;6248510;23;20024;-71
2021/06/05 04:12:27;;;;;;;5.45;4.70;;;20.80;68.80;;;;;;6258308;23;20428;-71
2021/06/05 04:14:53;;;;;;;4.78;4.28;;;20.70;68.80;;;;;;6253966;23;20047;-71
2021/06/05 04:17:18;;;;;;;4.57;4.15;;;20.70;68.80;;;;;;6258378;23;20297;-71
2021/06/05 04:19:44;;;;;;;4.90;4.38;;;20.70;68.80;;;;;;6259038;23;20055;-71
2021/06/05 04:22:11;;;;;;;4.78;4.28;;;20.70;68.70;;;;;;6249890;23;20023;-71
2021/06/05 04:24:37;;;;;;;5.38;4.60;;;20.70;68.80;;;;;;6260880;23;20016;-71
2021/06/05 04:27:04;;;;;;;4.75;4.22;;;20.70;68.80;;;;;;6250894;23;20016;-71
2021/06/05 04:29:31;;;;;;;5.07;4.00;;;20.70;68.80;;;;;;6260407;23;20024;-71
2021/06/05 04:31:57;;;;;;;4.60;4.20;;;20.70;68.70;;;;;;6259724;23;20275;-71
2021/06/05 04:34:23;;;;;;;3.97;3.55;;;20.70;68.60;;;;;;6260247;23;20418;-71
2021/06/05 04:36:50;;;;;;;4.53;4.10;;;20.70;68.60;;;;;;6259967;23;20019;-71
2021/06/05 04:39:17;;;;;;;4.60;4.10;;;20.70;68.60;;;;;;6260620;23;20027;-71
2021/06/05 04:41:43;;;;;;;4.22;3.83;;;20.70;68.60;;;;;;6260060;23;20418;-71
2021/06/05 04:44:09;;;;;;;4.13;3.72;;;20.70;68.70;;;;;;6250767;23;20020;-71
2021/06/05 04:46:35;;;;;;;5.25;4.03;;;20.70;68.80;;;;;;6259608;23;20136;-71
2021/06/05 04:49:00;;;;;;;4.60;4.10;;;20.70;68.80;;;;;;6259687;23;20023;-71
2021/06/05 04:51:29;;;;;;;4.28;3.88;;;20.70;68.70;;;;;;6249573;23;20044;-71
2021/06/05 04:53:55;;;;;;;4.20;3.78;;;20.70;68.60;;;;;;6259973;23;20028;-71
2021/06/05 04:56:30;;;;;;;4.40;3.92;;;20.70;68.60;;;;;;6260548;23;20016;-71
2021/06/05 04:58:57;;;;;;;4.28;3.88;;;20.70;68.50;;;;;;6261158;23;20082;-71
2021/06/05 05:01:22;;;;;;;4.63;4.00;;;20.70;68.50;;;;;;6260518;23;20094;-71
2021/06/05 05:03:48;;;;;;;4.82;4.32;;;20.70;68.40;;;;;;6250521;23;20056;-71
2021/06/05 05:06:14;;;;;;;4.10;3.70;;;20.70;68.50;;;;;;6260181;23;20441;-71
2021/06/05 05:08:40;;;;;;;4.22;3.83;;;20.60;68.40;;;;;;6250315;23;20154;-71
2021/06/05 05:11:06;;;;;;;4.93;3.78;;;20.60;68.40;;;;;;6259342;23;20066;-71
2021/06/05 05:13:34;;;;;;;5.15;3.70;;;20.60;68.50;;;;;;6259746;23;20040;-71
2021/06/05 05:16:02;;;;;;;4.65;3.63;;;20.60;68.60;;;;;;6249711;23;20054;-71
2021/06/05 05:18:29;;;;;;;4.15;3.65;;;20.60;68.70;;;;;;6249676;23;20031;-71
2021/06/05 05:20:55;;;;;;;4.72;3.80;;;20.60;68.80;;;;;;6259785;23;20443;-71
2021/06/05 05:23:25;;;;;;;4.63;4.00;;;20.60;68.80;;;;;;6259315;23;20454;-71
2021/06/05 05:25:51;;;;;;;4.53;4.13;;;20.60;68.80;;;;;;6249814;23;20027;-71
2021/06/05 05:28:18;;;;;;;4.03;3.63;;;20.60;68.80;;;;;;6259782;23;20016;-71
2021/06/05 05:30:56;;;;;;;4.82;3.70;;;20.60;68.80;;;;;;6259203;23;20012;-71
2021/06/05 05:33:22;;;;;;;4.35;3.72;;;20.60;68.80;;;;;;6260225;23;20026;-71
2021/06/05 05:35:50;;;;;;;4.25;3.50;;;20.60;68.90;;;;;;6259494;23;20016;-71
2021/06/05 05:38:17;;;;;;;3.63;3.20;;;20.60;69.00;;;;;;6259492;23;20016;-71
2021/06/05 05:40:44;;;;;;;4.68;4.15;;;20.60;68.90;;;;;;6249476;23;20090;-71
2021/06/05 05:43:10;;;;;;;3.85;3.40;;;20.60;69.00;;;;;;6249335;23;20111;-71
2021/06/05 05:45:36;;;;;;;4.13;3.60;;;20.60;68.90;;;;;;6259403;23;20468;-71
2021/06/05 05:48:06;;;;;;;3.70;3.28;;;20.60;69.00;;;;;;6223685;23;20039;-71
2021/06/05 05:50:34;;;;;;;3.88;3.10;;;20.60;68.90;;;;;;6259471;23;20008;-71
2021/06/05 05:53:01;;;;;;;3.45;2.83;;;20.60;68.90;;;;;;6259390;23;20019;-71
2021/06/05 05:55:27;;;;;;;3.58;3.25;;;20.60;69.50;;;;;;6249535;23;20059;-71
2021/06/05 05:57:54;;;;;;;4.45;2.92;;;20.60;68.80;;;;;;6259330;23;20043;-71
2021/06/05 06:00:28;;;;;;;2.92;2.53;;;20.60;68.90;;;;;;6232718;23;20012;-71
2021/06/05 06:02:54;;;;;;;3.58;2.80;;;20.60;69.00;;;;;;6249781;23;20016;-71
2021/06/05 06:05:20;;;;;;;3.47;2.50;;;20.60;68.80;;;;;;6259486;23;20012;-71
2021/06/05 06:07:46;;;;;;;3.75;2.90;;;20.50;68.70;;;;;;6259421;23;20020;-71
2021/06/05 06:10:14;;;;;;;3.55;2.90;;;20.60;68.70;;;;;;6259207;23;20019;-71
2021/06/05 06:12:40;;;;;;;4.05;2.83;;;20.50;68.50;;;;;;6259793;23;20012;-71
2021/06/05 06:15:13;;;;;;;3.75;2.58;;;20.50;68.50;;;;;;6254303;23;20087;-71
2021/06/05 06:17:39;;;;;;;3.83;2.90;;;20.50;68.40;;;;;;6249110;23;20291;-71
2021/06/05 06:20:08;;;;;;;3.85;2.80;;;20.50;68.50;;;;;;6259585;23;20027;-71
2021/06/05 06:22:36;;;;;;;3.50;3.03;;;20.50;68.60;;;;;;6248579;23;20516;-71
2021/06/05 06:25:03;;;;;;;3.25;2.53;;;20.50;68.70;;;;;;6258710;23;20054;-71
2021/06/05 06:27:32;;;;;;;2.95;2.10;;;20.50;68.70;;;;;;6248711;23;20073;-71
2021/06/05 06:29:59;;;;;;;3.88;2.55;;;20.50;68.80;;;;;;6259245;23;20139;-71
2021/06/05 06:32:25;;;;;;;3.40;2.20;;;20.50;68.80;;;;;;6249340;23;20024;-71
2021/06/05 06:34:51;;;;;;;2.63;2.42;;;20.50;68.80;;;;;;6248744;23;20325;-71
2021/06/05 06:37:17;;;;;;;2.80;2.30;;;20.50;68.80;;;;;;6259231;23;20024;-71
2021/06/05 06:39:43;;;;;;;2.83;2.13;;;20.50;68.80;;;;;;6232038;23;20016;-71
2021/06/05 06:42:09;;;;;;;2.33;2.05;;;20.50;68.80;;;;;;6259323;23;20023;-71
2021/06/05 06:44:36;;;;;;;3.35;2.45;;;20.50;68.80;;;;;;6258749;23;20016;-71
2021/06/05 06:47:06;;;;;;;2.47;2.05;;;20.50;68.80;;;;;;6259513;23;20023;-71
2021/06/05 06:49:32;;;;;;;2.78;2.17;;;20.50;68.80;;;;;;6259498;23;20079;-71
2021/06/05 06:51:58;;;;;;;3.38;2.35;;;20.50;68.70;;;;;;6259478;23;20012;-71
2021/06/05 06:54:24;;;;;;;2.90;2.03;;;20.50;68.60;;;;;;6259002;23;20417;-71
2021/06/05 06:56:50;;;;;;;3.65;1.80;;;20.50;68.60;;;;;;6248887;23;20305;-71
2021/06/05 06:59:17;;;;;;;4.05;1.88;;;20.50;68.50;;;;;;6258634;23;20043;-71
2021/06/05 07:01:43;;;;;;;2.20;1.73;;;20.50;69.10;;;;;;6259087;23;20016;-71
2021/06/05 07:04:10;;;;;;;1.73;1.63;;;20.50;68.50;;;;;;6258675;23;20098;-71
2021/06/05 07:06:37;;;;;;;2.80;2.10;;;20.50;68.50;;;;;;6258268;23;20015;-71
2021/06/05 07:09:06;;;;;;;3.33;1.85;;;20.50;68.60;;;;;;6258392;23;20031;-71
2021/06/05 07:11:34;;;;;;;2.05;1.65;;;20.50;68.50;;;;;;6259303;23;20015;-71
2021/06/05 07:14:03;;;;;;;1.73;1.27;;;20.50;68.50;;;;;;6248844;23;20381;-71
2021/06/05 07:16:31;;;;;;;3.15;1.48;;;20.50;68.50;;;;;;6258192;23;20431;-71
2021/06/05 07:18:57;;;;;;;1.88;1.55;;;20.50;68.40;;;;;;6248527;23;20016;-71
2021/06/05 07:21:23;;;;;;;2.22;1.80;;;20.50;68.40;;;;;;6258818;23;20453;-71
2021/06/05 07:23:50;;;;;;;1.85;1.42;;;20.50;69.00;;;;;;6258488;23;20016;-71
2021/06/05 07:26:21;;;;;;;2.45;1.80;;;20.50;69.10;;;;;;6258518;23;20023;-71
2021/06/05 07:28:53;;;;;;;2.47;1.80;;;20.50;68.40;;;;;;6259175;23;20016;-71
2021/06/05 07:31:25;;;;;;;2.40;1.63;;;20.50;68.40;;;;;;6258489;23;20012;-71
2021/06/05 07:33:51;;;;;;;2.83;1.48;;;20.50;68.50;;;;;;6259097;23;20241;-71
2021/06/05 07:36:21;;;;;;;2.15;1.38;;;20.50;68.50;;;;;;6248481;23;20095;-71
2021/06/05 07:38:47;;;;;;;1.85;1.50;;;20.50;68.50;;;;;;6258387;23;20012;-71
2021/06/05 07:41:13;;;;;;;2.13;1.20;;;20.50;68.50;;;;;;6232055;23;20023;-71
2021/06/05 07:43:39;;;;;;;2.53;1.50;;;20.50;68.50;;;;;;6258427;23;20016;-71
2021/06/05 07:46:06;;;;;;;2.08;1.40;;;20.50;68.50;;;;;;6258340;23;20059;-70
2021/06/05 07:48:32;;;;;;;2.58;1.83;;;20.50;68.50;;;;;;6258431;23;20016;-71
2021/06/05 07:50:58;;;;;;;3.00;1.65;;;20.50;68.50;;;;;;6257990;23;20024;-71
2021/06/05 07:53:25;;;;;;;1.77;1.65;;;20.50;68.50;;;;;;6259956;23;20016;-71
2021/06/05 07:55:51;;;;;;;2.15;1.77;;;20.50;68.60;;;;;;6260131;23;20421;-71
2021/06/05 07:58:17;;;;;;;2.08;1.73;;;20.50;68.60;;;;;;6260329;23;20016;-71
2021/06/05 08:00:43;;;;;;;1.80;1.30;;;20.50;68.60;;;;;;6261128;23;20100;-71
2021/06/05 08:03:09;;;;;;;1.67;1.50;;;20.60;68.80;;;;;;6233631;23;20039;-72
2021/06/05 08:05:37;;;;;;;2.05;1.20;;;20.50;68.80;;;;;;6261066;23;20015;-71
2021/06/05 08:08:05;;;;;;;2.28;1.52;;;20.60;68.80;;;;;;6260966;23;20012;-71
2021/06/05 08:10:32;;;;;;;1.85;1.42;;;20.60;68.90;;;;;;6259892;23;20425;-71
2021/06/05 08:12:57;;;;;;;2.20;1.50;;;20.60;68.90;;;;;;6249716;23;20045;-71
2021/06/05 08:15:27;;;;;;;2.00;1.45;;;20.60;69.00;;;;;;6254074;23;20012;-71
2021/06/05 08:17:53;;;;;;;1.63;1.20;;;20.60;69.00;;;;;;6259960;23;20039;-71
2021/06/05 08:20:24;;;;;;;2.10;1.25;;;20.60;69.10;;;;;;6260331;23;20041;-71
2021/06/05 08:22:50;;;;;;;1.70;1.23;;;20.60;69.10;;;;;;6260225;23;20027;-71
2021/06/05 08:25:16;;;;;;;1.35;0.95;;;20.60;69.10;;;;;;6260889;23;20357;-71
2021/06/05 08:27:43;;;;;;;1.10;0.90;;;20.60;69.10;;;;;;6260413;23;20024;-71
2021/06/05 08:30:15;;;;;;;1.92;1.30;;;20.60;69.20;;;;;;6260174;23;20301;-71
2021/06/05 08:32:40;;;;;;;1.33;1.10;;;20.60;69.10;;;;;;6259823;23;20508;-71
2021/06/05 08:35:07;;;;;;;1.30;1.20;;;20.60;69.20;;;;;;6260204;23;20055;-71
2021/06/05 08:37:35;;;;;;;1.73;1.20;;;20.60;69.20;;;;;;6260447;23;20305;-70
2021/06/05 08:40:03;;;;;;;1.33;1.05;;;20.60;69.20;;;;;;6261068;23;20012;-71
2021/06/05 08:42:36;;;;;;;2.10;1.10;;;20.60;69.30;;;;;;6260306;23;20417;-71
2021/06/05 08:45:05;;;;;;;1.55;1.20;;;20.60;69.30;;;;;;6259646;23;20016;-71
2021/06/05 08:47:36;;;;;;;2.58;1.15;;;20.60;69.30;;;;;;6260258;23;20008;-71
2021/06/05 08:50:17;;;;;;;2.00;1.40;;;20.60;69.40;;;;;;6259986;23;20011;-71
2021/06/05 08:53:18;;;;;;;2.17;1.20;;;20.60;69.40;;;;;;6259953;23;20077;-71
2021/06/05 08:55:52;;;;;;;2.38;1.20;;;20.70;69.40;;;;;;6211095;23;20016;-71
2021/06/05 08:58:39;;;;;;;3.08;1.50;;;20.70;69.50;;;;;;6233667;23;20027;-71
2021/06/05 09:01:15;;;;;;;2.05;1.35;;;20.70;69.40;;;;;;6260120;23;20472;-71
2021/06/05 09:03:42;;;;;;;1.45;1.23;;;20.60;69.40;;;;;;6259687;23;20031;-71
2021/06/05 09:06:29;;;;;;;2.92;1.60;;;20.70;69.50;;;;;;6260100;23;20074;-71
2021/06/05 09:08:55;;;;;;;1.98;1.50;;;20.70;69.60;;;;;;6259485;23;20020;-71
2021/06/05 09:11:21;;;;;;;1.60;1.40;;;20.70;69.70;;;;;;6259660;23;20054;-71
2021/06/05 09:13:49;;;;;;;2.45;1.60;;;20.70;69.80;;;;;;6259787;23;20055;-71
2021/06/05 09:16:23;;;;;;;2.08;1.30;;;20.70;69.80;;;;;;6249568;23;20020;-71
2021/06/05 09:19:06;;;;;;;2.05;1.50;;;20.70;69.80;;;;;;6259934;23;20083;-71
2021/06/05 09:21:43;;;;;;;3.47;1.27;;;20.70;69.80;;;;;;6250363;23;20039;-71
2021/06/05 09:24:24;;;;;;;2.03;1.52;;;20.70;69.90;;;;;;6250356;23;20250;-71
2021/06/05 09:27:17;;;;;;;2.85;1.88;;;20.70;69.80;;;;;;6259594;23;20067;-71
2021/06/05 09:29:55;;;;;;;2.53;1.48;;;20.70;69.90;;;;;;6259246;23;20043;-71
2021/06/05 09:32:31;;;;;;;2.53;1.83;;;20.70;69.90;;;;;;6260273;23;20016;-71
2021/06/05 09:35:04;;;;;;;2.55;1.75;;;20.70;69.90;;;;;;6222820;23;20027;-72
2021/06/05 09:37:41;;;;;;;2.10;1.65;;;20.70;70.00;;;;;;6259128;23;20283;-71
2021/06/05 09:40:19;;;;;;;2.95;1.88;;;20.70;70.00;;;;;;6249598;23;20039;-71
2021/06/05 09:42:53;;;;;;;1.85;1.60;;;20.70;70.00;;;;;;6259749;23;20539;-71
2021/06/05 09:45:21;;;;;;;;;;;20.70;70.00;;;;;;6259668;23;20433;-71
2021/06/05 09:47:48;;;;;;;3.53;2.00;;;20.70;69.90;;;;;;6258887;23;20300;-71
2021/06/05 09:50:31;;;;;;;3.30;1.92;;;20.70;70.00;;;;;;6259704;23;20023;-71
2021/06/05 09:53:12;;;;;;;2.88;1.55;;;20.70;70.00;;;;;;6233729;23;20016;-71
2021/06/05 09:55:39;;;;;;;2.10;1.80;;;20.70;70.00;;;;;;6259296;23;20016;-71
2021/06/05 09:58:10;;;;;;;2.97;2.05;;;20.70;70.10;;;;;;6259819;23;20020;-72
2021/06/05 10:00:41;;;;;;;2.40;2.05;;;20.70;70.10;;;;;;6259837;23;20066;-71
2021/06/05 10:03:31;;;;;;;2.15;1.95;;;20.70;70.10;;;;;;6259656;23;20047;-71
2021/06/05 10:05:57;;;;;;;2.22;2.03;;;20.70;70.10;;;;;;6259193;23;20286;-71
2021/06/05 10:08:36;;;;;;;2.33;2.13;;;20.70;70.20;;;;;;6259304;23;20026;-71
2021/06/05 10:11:09;;;;;;;3.15;2.40;;;20.70;70.10;;;;;;6259551;23;20012;-71
2021/06/05 10:13:40;;;;;;;2.92;2.08;;;20.70;70.10;;;;;;6259772;23;20020;-71
2021/06/05 10:16:16;;;;;;;2.42;2.10;;;20.60;70.10;;;;;;6249785;23;20409;-71
2021/06/05 10:19:00;;;;;;;3.75;2.60;;;20.70;70.10;;;;;;6249240;23;20034;-71
2021/06/05 10:21:41;;;;;;;2.60;2.17;;;20.60;70.10;;;;;;6258713;23;20402;-71
2021/06/05 10:24:26;;;;;;;2.83;2.50;;;20.60;70.10;;;;;;6232478;23;20027;-71
2021/06/05 10:26:54;;;;;;;2.53;2.05;;;20.60;70.00;;;;;;6249776;23;20019;-71
2021/06/05 10:29:40;;;;;;;2.58;2.38;;;20.60;70.10;;;;;;6258969;23;20020;-70
2021/06/05 10:32:10;;;;;;;3.42;2.65;;;20.60;70.00;;;;;;6258963;23;20039;-71
2021/06/05 10:34:40;;;;;;;3.17;2.85;;;20.60;70.10;;;;;;6248822;23;20095;-71
2021/06/05 10:37:11;;;;;;;3.28;2.20;;;20.60;70.10;;;;;;6259112;23;20012;-71
2021/06/05 10:39:41;;;;;;;3.05;2.60;;;20.60;70.10;;;;;;6258452;23;20012;-71
2021/06/05 10:42:26;;;;;;;2.28;2.08;;;20.60;70.10;;;;;;6258497;23;20016;-71
2021/06/05 10:44:53;;;;;;;2.83;2.20;;;20.60;70.60;;;;;;6259186;23;20023;-71
2021/06/05 10:47:39;;;;;;;3.20;2.50;;;20.60;70.10;;;;;;6259118;23;20326;-71
2021/06/05 10:50:26;;;;;;;2.47;2.28;;;20.60;70.00;;;;;;6258813;23;20083;-71
2021/06/05 10:53:15;;;;;;;3.42;2.60;;;20.60;70.00;;;;;;6259534;23;20032;-71
2021/06/05 10:55:51;;;;;;;2.90;2.70;;;20.60;70.00;;;;;;6258755;23;20141;-71
2021/06/05 10:58:39;;;;;;;2.72;2.53;;;20.60;70.00;;;;;;6258533;23;20016;-71
2021/06/05 11:01:09;;;;;;;3.10;2.47;;;20.60;70.00;;;;;;6259386;23;20066;-71
2021/06/05 11:03:35;;;;;;;3.35;2.80;;;20.60;70.00;;;;;;6258746;23;20047;-71
2021/06/05 11:06:18;;;;;;;2.80;2.50;;;20.60;70.10;;;;;;6259348;23;20418;-71
2021/06/05 11:08:49;;;;;;;2.45;2.08;;;20.60;70.00;;;;;;6258629;23;20012;-71
2021/06/05 11:11:42;;;;;;;4.13;2.95;;;20.60;70.10;;;;;;6248140;23;20024;-71
2021/06/05 11:14:37;;;;;;;3.20;2.85;;;20.60;70.00;;;;;;6257435;23;20087;-71
2021/06/05 11:17:27;;;;;;;3.58;3.28;;;20.50;70.00;;;;;;6248145;23;20081;-71
2021/06/05 11:20:06;;;;;;;3.13;2.72;;;20.60;70.10;;;;;;6258101;23;20016;-71
2021/06/05 11:22:50;;;;;;;3.00;2.67;;;20.50;70.00;;;;;;6259179;23;20016;-71
2021/06/05 11:25:15;;;;;;;3.10;2.78;;;20.50;70.00;;;;;;6248149;23;20079;-71
2021/06/05 11:27:41;;;;;;;3.40;3.10;;;20.50;70.00;;;;;;6258904;23;20016;-71
2021/06/05 11:30:36;;;;;;;3.50;3.20;;;20.50;70.00;;;;;;6259122;23;20027;-71
2021/06/05 11:33:09;;;;;;;3.78;3.25;;;20.50;70.00;;;;;;6258855;23;20016;-71
2021/06/05 11:35:58;;;;;;;3.45;3.15;;;20.50;70.00;;;;;;6258345;23;20024;-71
2021/06/05 11:38:24;;;;;;;3.80;3.45;;;20.50;70.00;;;;;;6259002;23;20012;-71
2021/06/05 11:40:52;;;;;;;4.15;3.35;;;20.50;70.00;;;;;;6249044;23;20020;-71
2021/06/05 11:43:32;;;;;;;3.33;3.03;;;20.50;70.00;;;;;;6258368;23;20305;-71
2021/06/05 11:46:30;;;;;;;3.38;3.03;;;20.50;70.10;;;;;;6249193;23;20016;-71
2021/06/05 11:49:01;;;;;;;3.55;3.25;;;20.50;70.00;;;;;;6182453;23;20016;-71
2021/06/05 11:51:33;;;;;;;3.58;3.28;;;20.50;70.00;;;;;;6258790;23;20047;-71
2021/06/05 11:54:18;;;;;;;3.78;3.45;;;20.50;70.00;;;;;;6259043;23;20087;-71
2021/06/05 11:56:44;;;;;;;3.58;3.28;;;20.50;70.00;;;;;;6248162;23;20099;-71
2021/06/05 11:59:34;;;;;;;4.82;3.88;;;20.50;70.10;;;;;;6258754;23;20043;-71
2021/06/05 12:02:25;;;;;;;3.92;3.53;;;20.50;70.00;;;;;;6259002;23;20012;-71
2021/06/05 12:04:57;;;;;;;3.72;3.33;;;20.50;70.60;;;;;;6247185;23;20047;-71
2021/06/05 12:07:38;;;;;;;4.15;3.50;;;20.50;70.00;;;;;;6248947;23;20083;-71
2021/06/05 12:10:07;;;;;;;4.45;4.05;;;20.50;70.00;;;;;;6258272;23;20016;-70
2021/06/05 12:12:43;;;;;;;4.15;3.75;;;20.50;70.10;;;;;;6258533;23;20066;-71
2021/06/05 12:15:09;;;;;;;4.32;3.70;;;20.50;70.10;;;;;;6248223;23;20028;-71
2021/06/05 12:17:39;;;;;;;4.20;3.60;;;20.50;70.10;;;;;;6258350;23;20016;-71
2021/06/05 12:20:17;;;;;;;4.70;4.30;;;20.50;70.10;;;;;;6258138;23;20016;-71
2021/06/05 12:22:45;;;;;;;4.35;3.83;;;20.50;70.10;;;;;;6258198;23;20012;-71
2021/06/05 12:25:26;;;;;;;4.43;4.00;;;20.50;70.10;;;;;;6258099;23;20353;-71
2021/06/05 12:27:52;;;;;;;4.15;3.75;;;20.50;70.00;;;;;;6257955;23;20424;-71
2021/06/05 12:30:26;;;;;;;5.72;5.13;;;20.50;70.10;;;;;;6258149;23;20023;-71
2021/06/05 12:32:58;;;;;;;4.78;4.38;;;20.50;70.10;;;;;;6257825;23;20054;-72
2021/06/05 12:35:27;;;;;;;4.60;4.20;;;20.50;70.10;;;;;;6257766;23;20036;-71
2021/06/05 12:37:56;;;;;;;4.93;4.43;;;20.50;70.10;;;;;;6258745;23;20051;-71
2021/06/05 12:40:30;;;;;;;4.78;4.18;;;20.50;70.20;;;;;;6258979;23;20012;-71
2021/06/05 12:42:57;;;;;;;5.00;4.43;;;20.50;70.20;;;;;;6259968;23;20020;-71
2021/06/05 12:45:26;;;;;;;5.03;4.53;;;20.50;70.20;;;;;;6260084;23;20032;-71
2021/06/05 12:47:57;;;;;;;5.28;4.57;;;20.50;70.20;;;;;;6259906;23;20283;-70
2021/06/05 12:50:28;;;;;;;5.32;4.82;;;20.50;70.20;;;;;;6259640;23;20282;-71
2021/06/05 12:52:55;;;;;;;5.25;4.60;;;20.50;70.20;;;;;;6260132;23;20022;-71
2021/06/05 12:55:41;;;;;;;5.10;4.60;;;20.50;70.20;;;;;;6259896;23;20035;-71
2021/06/05 12:58:13;;;;;;;5.90;4.97;;;20.50;70.10;;;;;;6260571;23;20040;-71
2021/06/05 13:00:48;;;;;;;6.47;4.53;;;20.50;70.20;;;;;;6259319;23;20077;-71
2021/06/05 13:03:14;;;;;;;5.90;5.30;;;20.50;70.20;;;;;;6259891;23;20070;-71
2021/06/05 13:06:02;;;;;;;5.05;4.55;;;20.50;70.30;;;;;;6259729;23;20040;-72